sensor_id;sensor_type;location;lat;lon;timestamp;pressure;altitude;pressure_sealevel;temperature;humidity
48624;BME280;34422;45.802;16.114;2022-07-06T00:00:06;100472.56;;;19.80;100.00
48624;BME280;34422;45.802;16.114;2022-07-06T00:02:34;100481.31;;;19.82;100.00
48624;BME280;34422;45.802;16.114;2022-07-06T00:05:01;100471.72;;;19.84;100.00
48624;BME280;34422;45.802;16.114;2022-07-06T00:07:28;100472.59;;;19.90;100.00
48624;BME280;34422;45.802;16.114;2022-07-06T00:09:54;100479.19;;;19.94;100.00
48624;BME280;34422;45.802;16.114;2022-07-06T00:12:21;100477.53;;;19.93;100.00
48624;BME280;34422;45.802;16.114;2022-07-06T00:14:48;100476.72;;;19.93;100.00
48624;BME280;34422;45.802;16.114;2022-07-06T00:17:15;100483.03;;;19.93;100.00
48624;BME280;34422;45.802;16.114;2022-07-06T00:19:41;100478.06;;;19.90;100.00
48624;BME280;34422;45.802;16.114;2022-07-06T00:22:08;100486.59;;;19.88;100.00
48624;BME280;34422;45.802;16.114;2022-07-06T00:24:35;100485.19;;;19.86;100.00
48624;BME280;34422;45.802;16.114;2022-07-06T00:27:02;100477.47;;;19.83;100.00
48624;BME280;34422;45.802;16.114;2022-07-06T00:29:29;100487.38;;;19.84;100.00
48624;BME280;34422;45.802;16.114;2022-07-06T00:31:57;100489.28;;;19.78;100.00
48624;BME280;34422;45.802;16.114;2022-07-06T00:34:24;100496.13;;;19.76;100.00
48624;BME280;34422;45.802;16.114;2022-07-06T00:36:51;100486.78;;;19.72;100.00
48624;BME280;34422;45.802;16.114;2022-07-06T00:39:18;100487.59;;;19.67;100.00
48624;BME280;34422;45.802;16.114;2022-07-06T00:41:45;100486.22;;;19.65;100.00
48624;BME280;34422;45.802;16.114;2022-07-06T00:44:12;100493.59;;;19.59;100.00
48624;BME280;34422;45.802;16.114;2022-07-06T00:46:39;100489.38;;;19.46;100.00
48624;BME280;34422;45.802;16.114;2022-07-06T00:49:06;100490.41;;;19.35;100.00
48624;BME280;34422;45.802;16.114;2022-07-06T00:51:53;100484.03;;;19.30;100.00
48624;BME280;34422;45.802;16.114;2022-07-06T00:54:20;100486.94;;;19.08;100.00
48624;BME280;34422;45.802;16.114;2022-07-06T00:56:47;100494.00;;;18.99;100.00
48624;BME280;34422;45.802;16.114;2022-07-06T00:59:14;100501.09;;;19.00;100.00
48624;BME280;34422;45.802;16.114;2022-07-06T01:01:40;100491.50;;;18.97;100.00
48624;BME280;34422;45.802;16.114;2022-07-06T01:04:07;100493.94;;;18.94;100.00
48624;BME280;34422;45.802;16.114;2022-07-06T01:06:34;100488.41;;;18.89;100.00
48624;BME280;34422;45.802;16.114;2022-07-06T01:09:01;100480.19;;;18.89;100.00
48624;BME280;34422;45.802;16.114;2022-07-06T01:11:28;100475.25;;;18.91;100.00
48624;BME280;34422;45.802;16.114;2022-07-06T01:13:56;100475.25;;;18.91;100.00
48624;BME280;34422;45.802;16.114;2022-07-06T01:16:23;100480.44;;;18.87;100.00
48624;BME280;34422;45.802;16.114;2022-07-06T01:18:50;100478.19;;;18.79;100.00
48624;BME280;34422;45.802;16.114;2022-07-06T01:21:17;100469.09;;;18.73;100.00
48624;BME280;34422;45.802;16.114;2022-07-06T01:23:46;100467.97;;;18.69;100.00
48624;BME280;34422;45.802;16.114;2022-07-06T01:26:15;100461.03;;;18.62;100.00
48624;BME280;34422;45.802;16.114;2022-07-06T01:28:42;100466.72;;;18.55;100.00
48624;BME280;34422;45.802;16.114;2022-07-06T01:31:21;100474.88;;;18.50;100.00
48624;BME280;34422;45.802;16.114;2022-07-06T01:33:49;100480.88;;;18.47;100.00
48624;BME280;34422;45.802;16.114;2022-07-06T01:36:17;100487.41;;;18.41;100.00
48624;BME280;34422;45.802;16.114;2022-07-06T01:38:48;100484.09;;;18.39;100.00
48624;BME280;34422;45.802;16.114;2022-07-06T01:41:16;100478.09;;;18.42;100.00
48624;BME280;34422;45.802;16.114;2022-07-06T01:43:43;100485.78;;;18.45;100.00
48624;BME280;34422;45.802;16.114;2022-07-06T01:46:11;100484.19;;;18.49;100.00
48624;BME280;34422;45.802;16.114;2022-07-06T01:48:38;100482.59;;;18.53;100.00
48624;BME280;34422;45.802;16.114;2022-07-06T01:51:05;100490.00;;;18.53;100.00
48624;BME280;34422;45.802;16.114;2022-07-06T01:53:32;100479.34;;;18.56;100.00
48624;BME280;34422;45.802;16.114;2022-07-06T01:55:58;100480.75;;;18.59;100.00
48624;BME280;34422;45.802;16.114;2022-07-06T01:58:25;100479.66;;;18.60;100.00
48624;BME280;34422;45.802;16.114;2022-07-06T02:00:52;100487.88;;;18.60;100.00
48624;BME280;34422;45.802;16.114;2022-07-06T02:03:19;100492.53;;;18.59;100.00
48624;BME280;34422;45.802;16.114;2022-07-06T02:05:46;100486.47;;;18.57;100.00
48624;BME280;34422;45.802;16.114;2022-07-06T02:08:12;100483.16;;;18.55;100.00
48624;BME280;34422;45.802;16.114;2022-07-06T02:10:39;100479.84;;;18.53;100.00
48624;BME280;34422;45.802;16.114;2022-07-06T02:13:06;100488.66;;;18.55;100.00
48624;BME280;34422;45.802;16.114;2022-07-06T02:15:33;100490.81;;;18.53;100.00
48624;BME280;34422;45.802;16.114;2022-07-06T02:18:00;100492.47;;;18.54;100.00
48624;BME280;34422;45.802;16.114;2022-07-06T02:20:27;100497.63;;;18.51;100.00
48624;BME280;34422;45.802;16.114;2022-07-06T02:22:54;100501.13;;;18.41;100.00
48624;BME280;34422;45.802;16.114;2022-07-06T02:25:21;100498.28;;;18.31;100.00
48624;BME280;34422;45.802;16.114;2022-07-06T02:27:48;100495.47;;;18.26;100.00
48624;BME280;34422;45.802;16.114;2022-07-06T02:30:14;100493.81;;;18.25;100.00
48624;BME280;34422;45.802;16.114;2022-07-06T02:32:42;100494.91;;;18.24;100.00
48624;BME280;34422;45.802;16.114;2022-07-06T02:35:08;100490.19;;;18.19;100.00
48624;BME280;34422;45.802;16.114;2022-07-06T02:37:35;100494.81;;;18.19;100.00
48624;BME280;34422;45.802;16.114;2022-07-06T02:40:02;100498.09;;;18.16;100.00
48624;BME280;34422;45.802;16.114;2022-07-06T02:42:29;100506.00;;;18.12;100.00
48624;BME280;34422;45.802;16.114;2022-07-06T02:44:56;100503.50;;;18.10;100.00
48624;BME280;34422;45.802;16.114;2022-07-06T02:47:23;100504.03;;;18.07;100.00
48624;BME280;34422;45.802;16.114;2022-07-06T02:49:49;100511.16;;;18.08;100.00
48624;BME280;34422;45.802;16.114;2022-07-06T02:52:16;100511.16;;;18.08;100.00
48624;BME280;34422;45.802;16.114;2022-07-06T02:54:43;100511.16;;;18.08;100.00
48624;BME280;34422;45.802;16.114;2022-07-06T02:57:10;100512.56;;;18.11;100.00
48624;BME280;34422;45.802;16.114;2022-07-06T02:59:37;100512.72;;;18.04;100.00
48624;BME280;34422;45.802;16.114;2022-07-06T03:02:04;100507.66;;;17.91;100.00
48624;BME280;34422;45.802;16.114;2022-07-06T03:04:32;100510.84;;;17.83;100.00
48624;BME280;34422;45.802;16.114;2022-07-06T03:06:59;100510.22;;;17.76;100.00
48624;BME280;34422;45.802;16.114;2022-07-06T03:09:26;100511.31;;;17.75;100.00
48624;BME280;34422;45.802;16.114;2022-07-06T03:11:53;100507.16;;;17.72;100.00
48624;BME280;34422;45.802;16.114;2022-07-06T03:14:20;100511.81;;;17.72;100.00
48624;BME280;34422;45.802;16.114;2022-07-06T03:16:46;100513.63;;;17.66;100.00
48624;BME280;34422;45.802;16.114;2022-07-06T03:19:13;100513.31;;;17.63;100.00
48624;BME280;34422;45.802;16.114;2022-07-06T03:21:40;100509.16;;;17.60;100.00
48624;BME280;34422;45.802;16.114;2022-07-06T03:24:06;100509.47;;;17.64;100.00
48624;BME280;34422;45.802;16.114;2022-07-06T03:26:33;100508.97;;;17.67;100.00
48624;BME280;34422;45.802;16.114;2022-07-06T03:29:00;100506.81;;;17.69;100.00
48624;BME280;34422;45.802;16.114;2022-07-06T03:31:27;100506.00;;;17.68;100.00
48624;BME280;34422;45.802;16.114;2022-07-06T03:33:53;100504.66;;;17.71;100.00
48624;BME280;34422;45.802;16.114;2022-07-06T03:36:20;100502.00;;;17.76;100.00
48624;BME280;34422;45.802;16.114;2022-07-06T03:38:47;100499.91;;;17.83;100.00
48624;BME280;34422;45.802;16.114;2022-07-06T03:41:14;100499.44;;;17.91;100.00
48624;BME280;34422;45.802;16.114;2022-07-06T03:43:41;100499.59;;;18.01;100.00
48624;BME280;34422;45.802;16.114;2022-07-06T03:46:08;100495.28;;;18.10;100.00
48624;BME280;34422;45.802;16.114;2022-07-06T03:48:35;100503.50;;;18.10;100.00
48624;BME280;34422;45.802;16.114;2022-07-06T03:51:01;100510.66;;;18.11;100.00
48624;BME280;34422;45.802;16.114;2022-07-06T03:53:28;100514.56;;;18.21;100.00
48624;BME280;34422;45.802;16.114;2022-07-06T03:55:55;100520.19;;;18.31;100.00
48624;BME280;34422;45.802;16.114;2022-07-06T03:58:40;100518.00;;;18.33;100.00
48624;BME280;34422;45.802;16.114;2022-07-06T04:01:07;100507.69;;;18.40;100.00
48624;BME280;34422;45.802;16.114;2022-07-06T04:03:34;100513.25;;;18.50;100.00
48624;BME280;34422;45.802;16.114;2022-07-06T04:06:00;100515.03;;;18.61;100.00
48624;BME280;34422;45.802;16.114;2022-07-06T04:08:27;100520.66;;;18.76;100.00
48624;BME280;34422;45.802;16.114;2022-07-06T04:10:54;100524.09;;;18.94;100.00
48624;BME280;34422;45.802;16.114;2022-07-06T04:13:21;100518.13;;;19.02;100.00
48624;BME280;34422;45.802;16.114;2022-07-06T04:15:47;100515.03;;;19.25;100.00
48624;BME280;34422;45.802;16.114;2022-07-06T04:18:14;100511.59;;;19.45;100.00
48624;BME280;34422;45.802;16.114;2022-07-06T04:20:41;100515.31;;;19.66;100.00
48624;BME280;34422;45.802;16.114;2022-07-06T04:23:08;100506.56;;;19.74;100.00
48624;BME280;34422;45.802;16.114;2022-07-06T04:25:35;100507.72;;;19.88;100.00
48624;BME280;34422;45.802;16.114;2022-07-06T04:28:02;100513.75;;;19.85;100.00
48624;BME280;34422;45.802;16.114;2022-07-06T04:30:29;100510.50;;;19.93;100.00
48624;BME280;34422;45.802;16.114;2022-07-06T04:32:56;100503.94;;;20.09;100.00
48624;BME280;34422;45.802;16.114;2022-07-06T04:35:23;100509.50;;;20.19;100.00
48624;BME280;34422;45.802;16.114;2022-07-06T04:37:50;100512.81;;;20.21;100.00
48624;BME280;34422;45.802;16.114;2022-07-06T04:40:17;100508.97;;;20.22;100.00
48624;BME280;34422;45.802;16.114;2022-07-06T04:42:44;100507.34;;;20.37;100.00
48624;BME280;34422;45.802;16.114;2022-07-06T04:45:10;100499.69;;;20.54;100.00
48624;BME280;34422;45.802;16.114;2022-07-06T04:47:37;100500.84;;;20.63;100.00
48624;BME280;34422;45.802;16.114;2022-07-06T04:50:05;100496.97;;;20.69;100.00
48624;BME280;34422;45.802;16.114;2022-07-06T04:52:32;100504.38;;;20.58;100.00
48624;BME280;34422;45.802;16.114;2022-07-06T04:54:59;100503.84;;;20.67;100.00
48624;BME280;34422;45.802;16.114;2022-07-06T04:57:25;100503.56;;;20.78;100.00
48624;BME280;34422;45.802;16.114;2022-07-06T04:59:52;100505.78;;;20.97;100.00
48624;BME280;34422;45.802;16.114;2022-07-06T05:02:19;100507.41;;;21.33;100.00
48624;BME280;34422;45.802;16.114;2022-07-06T05:04:46;100500.13;;;21.83;100.00
48624;BME280;34422;45.802;16.114;2022-07-06T05:07:13;100498.34;;;22.22;100.00
48624;BME280;34422;45.802;16.114;2022-07-06T05:09:39;100498.25;;;22.32;99.02
48624;BME280;34422;45.802;16.114;2022-07-06T05:12:08;100509.28;;;23.11;91.58
48624;BME280;34422;45.802;16.114;2022-07-06T05:14:35;100499.47;;;23.28;90.42
48624;BME280;34422;45.802;16.114;2022-07-06T05:17:03;100496.13;;;23.60;88.04
48624;BME280;34422;45.802;16.114;2022-07-06T05:19:29;100500.13;;;23.73;87.71
48624;BME280;34422;45.802;16.114;2022-07-06T05:21:58;100500.00;;;23.01;92.83
48624;BME280;34422;45.802;16.114;2022-07-06T05:24:25;100500.53;;;23.03;93.66
48624;BME280;34422;45.802;16.114;2022-07-06T05:26:52;100497.28;;;22.96;95.12
48624;BME280;34422;45.802;16.114;2022-07-06T05:29:19;100490.25;;;22.75;96.63
48624;BME280;34422;45.802;16.114;2022-07-06T05:31:46;100491.47;;;22.59;97.68
48624;BME280;34422;45.802;16.114;2022-07-06T05:34:13;100484.75;;;22.70;97.86
48624;BME280;34422;45.802;16.114;2022-07-06T05:36:39;100489.81;;;22.63;99.42
48624;BME280;34422;45.802;16.114;2022-07-06T05:39:06;100498.19;;;23.21;96.94
48624;BME280;34422;45.802;16.114;2022-07-06T05:41:33;100498.09;;;22.97;97.41
48624;BME280;34422;45.802;16.114;2022-07-06T05:44:00;100502.63;;;23.17;98.09
48624;BME280;34422;45.802;16.114;2022-07-06T05:46:28;100505.00;;;23.28;97.46
48624;BME280;34422;45.802;16.114;2022-07-06T05:48:54;100508.63;;;23.24;96.16
48624;BME280;34422;45.802;16.114;2022-07-06T05:51:40;100510.56;;;23.52;97.09
48624;BME280;34422;45.802;16.114;2022-07-06T05:54:06;100512.72;;;23.60;95.37
48624;BME280;34422;45.802;16.114;2022-07-06T05:56:33;100512.16;;;23.82;93.66
48624;BME280;34422;45.802;16.114;2022-07-06T05:59:00;100522.69;;;24.28;92.05
48624;BME280;34422;45.802;16.114;2022-07-06T06:01:26;100514.97;;;24.25;92.74
48624;BME280;34422;45.802;16.114;2022-07-06T06:03:53;100517.41;;;23.84;96.87
48624;BME280;34422;45.802;16.114;2022-07-06T06:06:20;100522.72;;;23.51;90.50
48624;BME280;34422;45.802;16.114;2022-07-06T06:08:47;100519.75;;;23.71;89.96
48624;BME280;34422;45.802;16.114;2022-07-06T06:11:13;100517.09;;;24.52;86.91
48624;BME280;34422;45.802;16.114;2022-07-06T06:13:40;100515.78;;;25.33;80.63
48624;BME280;34422;45.802;16.114;2022-07-06T06:16:07;100519.16;;;25.76;81.28
48624;BME280;34422;45.802;16.114;2022-07-06T06:18:33;100525.91;;;26.11;80.19
48624;BME280;34422;45.802;16.114;2022-07-06T06:21:00;100531.00;;;26.59;74.59
48624;BME280;34422;45.802;16.114;2022-07-06T06:23:27;100523.00;;;26.43;74.01
48624;BME280;34422;45.802;16.114;2022-07-06T06:25:54;100528.47;;;26.48;70.73
48624;BME280;34422;45.802;16.114;2022-07-06T06:28:20;100524.94;;;26.79;70.59
48624;BME280;34422;45.802;16.114;2022-07-06T06:30:47;100525.44;;;27.17;67.00
48624;BME280;34422;45.802;16.114;2022-07-06T06:33:18;100525.38;;;27.31;67.90
48624;BME280;34422;45.802;16.114;2022-07-06T06:35:47;100528.19;;;27.39;64.26
48624;BME280;34422;45.802;16.114;2022-07-06T06:38:15;100524.78;;;27.42;66.60
48624;BME280;34422;45.802;16.114;2022-07-06T06:40:44;100519.53;;;27.41;66.31
48624;BME280;34422;45.802;16.114;2022-07-06T06:43:11;100514.28;;;26.72;66.64
48624;BME280;34422;45.802;16.114;2022-07-06T06:45:38;100515.00;;;26.42;66.69
48624;BME280;34422;45.802;16.114;2022-07-06T06:48:05;100510.81;;;26.67;68.05
48624;BME280;34422;45.802;16.114;2022-07-06T06:50:32;100516.53;;;27.29;65.86
48624;BME280;34422;45.802;16.114;2022-07-06T06:52:59;100513.88;;;27.85;65.45
48624;BME280;34422;45.802;16.114;2022-07-06T06:55:26;100518.44;;;27.81;63.08
48624;BME280;34422;45.802;16.114;2022-07-06T06:57:53;100519.56;;;27.72;65.11
48624;BME280;34422;45.802;16.114;2022-07-06T07:00:21;100527.16;;;27.97;65.77
48624;BME280;34422;45.802;16.114;2022-07-06T07:02:48;100527.25;;;28.32;63.32
48624;BME280;34422;45.802;16.114;2022-07-06T07:05:14;100523.59;;;27.12;66.73
48624;BME280;34422;45.802;16.114;2022-07-06T07:07:41;100526.81;;;26.47;67.90
48624;BME280;34422;45.802;16.114;2022-07-06T07:10:08;100521.34;;;27.14;67.48
48624;BME280;34422;45.802;16.114;2022-07-06T07:12:35;100526.38;;;27.66;64.77
48624;BME280;34422;45.802;16.114;2022-07-06T07:15:08;100533.06;;;28.04;63.56
48624;BME280;34422;45.802;16.114;2022-07-06T07:17:35;100535.22;;;27.68;65.34
48624;BME280;34422;45.802;16.114;2022-07-06T07:20:02;100533.44;;;28.11;62.40
48624;BME280;34422;45.802;16.114;2022-07-06T07:22:29;100536.84;;;28.00;63.60
48624;BME280;34422;45.802;16.114;2022-07-06T07:24:55;100544.47;;;28.25;62.42
48624;BME280;34422;45.802;16.114;2022-07-06T07:27:22;100525.44;;;27.79;63.15
48624;BME280;34422;45.802;16.114;2022-07-06T07:29:49;100520.56;;;27.22;64.38
48624;BME280;34422;45.802;16.114;2022-07-06T07:32:16;100526.84;;;27.99;62.90
48624;BME280;34422;45.802;16.114;2022-07-06T07:34:42;100539.09;;;27.98;62.67
48624;BME280;34422;45.802;16.114;2022-07-06T07:37:09;100523.66;;;27.74;62.79
48624;BME280;34422;45.802;16.114;2022-07-06T07:39:36;100520.53;;;27.76;64.12
48624;BME280;34422;45.802;16.114;2022-07-06T07:42:03;100533.31;;;27.23;63.78
48624;BME280;34422;45.802;16.114;2022-07-06T07:44:30;100525.09;;;27.41;63.33
48624;BME280;34422;45.802;16.114;2022-07-06T07:47:01;100521.19;;;27.73;61.66
48624;BME280;34422;45.802;16.114;2022-07-06T07:49:28;100516.97;;;27.53;63.58
48624;BME280;34422;45.802;16.114;2022-07-06T07:51:55;100515.72;;;27.59;62.85
48624;BME280;34422;45.802;16.114;2022-07-06T07:54:22;100521.53;;;27.49;63.17
48624;BME280;34422;45.802;16.114;2022-07-06T07:56:48;100516.16;;;27.52;64.08
48624;BME280;34422;45.802;16.114;2022-07-06T07:59:15;100527.97;;;27.98;62.40
48624;BME280;34422;45.802;16.114;2022-07-06T08:01:43;100525.53;;;28.05;61.95
48624;BME280;34422;45.802;16.114;2022-07-06T08:04:10;100520.13;;;28.56;63.69
48624;BME280;34422;45.802;16.114;2022-07-06T08:06:37;100513.41;;;28.92;59.01
48624;BME280;34422;45.802;16.114;2022-07-06T08:09:03;100515.69;;;29.07;58.55
48624;BME280;34422;45.802;16.114;2022-07-06T08:11:31;100519.47;;;28.85;58.18
48624;BME280;34422;45.802;16.114;2022-07-06T08:13:58;100518.63;;;28.68;57.37
48624;BME280;34422;45.802;16.114;2022-07-06T08:16:25;100528.13;;;28.49;59.02
48624;BME280;34422;45.802;16.114;2022-07-06T08:18:52;100523.44;;;30.33;52.91
48624;BME280;34422;45.802;16.114;2022-07-06T08:21:18;100524.59;;;29.56;54.11
48624;BME280;34422;45.802;16.114;2022-07-06T08:23:46;100522.91;;;29.72;55.24
48624;BME280;34422;45.802;16.114;2022-07-06T08:26:12;100526.84;;;28.90;54.21
48624;BME280;34422;45.802;16.114;2022-07-06T08:28:39;100532.41;;;29.07;54.30
48624;BME280;34422;45.802;16.114;2022-07-06T08:31:06;100526.78;;;28.38;54.45
48624;BME280;34422;45.802;16.114;2022-07-06T08:33:33;100529.66;;;28.16;58.78
48624;BME280;34422;45.802;16.114;2022-07-06T08:35:59;100524.88;;;28.56;58.91
48624;BME280;34422;45.802;16.114;2022-07-06T08:38:26;100525.34;;;30.62;48.79
48624;BME280;34422;45.802;16.114;2022-07-06T08:40:54;100522.31;;;32.11;42.56
48624;BME280;34422;45.802;16.114;2022-07-06T08:43:22;100523.13;;;32.11;44.67
48624;BME280;34422;45.802;16.114;2022-07-06T08:45:50;100526.59;;;30.23;49.59
48624;BME280;34422;45.802;16.114;2022-07-06T08:48:22;100519.66;;;30.29;47.25
48624;BME280;34422;45.802;16.114;2022-07-06T08:50:49;100515.81;;;30.63;47.80
48624;BME280;34422;45.802;16.114;2022-07-06T08:53:20;100510.22;;;30.63;45.50
48624;BME280;34422;45.802;16.114;2022-07-06T08:55:48;100519.72;;;30.70;46.15
48624;BME280;34422;45.802;16.114;2022-07-06T08:58:15;100509.72;;;31.23;44.42
48624;BME280;34422;45.802;16.114;2022-07-06T09:00:43;100508.34;;;31.08;43.88
48624;BME280;34422;45.802;16.114;2022-07-06T09:03:12;100513.41;;;30.61;44.52
48624;BME280;34422;45.802;16.114;2022-07-06T09:05:39;100511.38;;;31.36;43.96
48624;BME280;34422;45.802;16.114;2022-07-06T09:08:07;100518.25;;;31.84;42.65
48624;BME280;34422;45.802;16.114;2022-07-06T09:10:33;100512.50;;;32.69;40.40
48624;BME280;34422;45.802;16.114;2022-07-06T09:13:05;100516.22;;;32.45;39.64
48624;BME280;34422;45.802;16.114;2022-07-06T09:15:33;100513.19;;;32.14;39.92
48624;BME280;34422;45.802;16.114;2022-07-06T09:18:01;100510.81;;;31.43;40.52
48624;BME280;34422;45.802;16.114;2022-07-06T09:20:30;100513.19;;;30.37;43.36
48624;BME280;34422;45.802;16.114;2022-07-06T09:23:04;100517.72;;;30.92;42.23
48624;BME280;34422;45.802;16.114;2022-07-06T09:25:31;100514.19;;;31.49;40.57
48624;BME280;34422;45.802;16.114;2022-07-06T09:27:59;100512.50;;;31.23;40.60
48624;BME280;34422;45.802;16.114;2022-07-06T09:30:26;100512.16;;;29.91;44.86
48624;BME280;34422;45.802;16.114;2022-07-06T09:32:56;100512.97;;;29.92;44.76
48624;BME280;34422;45.802;16.114;2022-07-06T09:35:35;100512.69;;;29.29;45.92
48624;BME280;34422;45.802;16.114;2022-07-06T09:38:12;100509.47;;;28.84;47.62
48624;BME280;34422;45.802;16.114;2022-07-06T09:40:44;100506.66;;;29.10;47.38
48624;BME280;34422;45.802;16.114;2022-07-06T09:43:19;100513.34;;;30.20;43.96
48624;BME280;34422;45.802;16.114;2022-07-06T09:45:50;100504.59;;;31.04;42.60
48624;BME280;34422;45.802;16.114;2022-07-06T09:48:21;100505.22;;;30.27;44.61
48624;BME280;34422;45.802;16.114;2022-07-06T09:50:56;100510.59;;;30.61;42.82
48624;BME280;34422;45.802;16.114;2022-07-06T09:53:24;100508.53;;;29.99;43.66
48624;BME280;34422;45.802;16.114;2022-07-06T09:55:56;100509.16;;;30.05;43.57
48624;BME280;34422;45.802;16.114;2022-07-06T09:58:25;100512.22;;;30.62;41.97
48624;BME280;34422;45.802;16.114;2022-07-06T10:00:51;100511.00;;;30.22;40.80
48624;BME280;34422;45.802;16.114;2022-07-06T10:03:19;100511.84;;;29.84;40.67
48624;BME280;34422;45.802;16.114;2022-07-06T10:05:47;100510.38;;;29.31;39.73
48624;BME280;34422;45.802;16.114;2022-07-06T10:08:16;100503.44;;;29.55;40.24
48624;BME280;34422;45.802;16.114;2022-07-06T10:10:44;100513.00;;;29.83;39.58
48624;BME280;34422;45.802;16.114;2022-07-06T10:13:12;100515.06;;;29.65;40.00
48624;BME280;34422;45.802;16.114;2022-07-06T10:15:40;100513.34;;;29.26;39.25
48624;BME280;34422;45.802;16.114;2022-07-06T10:18:09;100516.66;;;28.77;40.99
48624;BME280;34422;45.802;16.114;2022-07-06T10:20:37;100512.06;;;28.29;43.14
48624;BME280;34422;45.802;16.114;2022-07-06T10:23:07;100503.72;;;28.29;44.78
48624;BME280;34422;45.802;16.114;2022-07-06T10:25:35;100495.22;;;28.94;44.04
48624;BME280;34422;45.802;16.114;2022-07-06T10:28:02;100504.25;;;28.83;40.02
48624;BME280;34422;45.802;16.114;2022-07-06T10:30:29;100498.00;;;28.69;38.09
48624;BME280;34422;45.802;16.114;2022-07-06T10:32:58;100502.06;;;28.45;38.33
48624;BME280;34422;45.802;16.114;2022-07-06T10:35:26;100507.47;;;28.24;38.21
48624;BME280;34422;45.802;16.114;2022-07-06T10:38:28;100507.19;;;28.04;38.70
48624;BME280;34422;45.802;16.114;2022-07-06T10:41:02;100494.59;;;27.98;36.75
48624;BME280;34422;45.802;16.114;2022-07-06T10:43:45;100501.94;;;28.68;36.90
48624;BME280;34422;45.802;16.114;2022-07-06T10:46:16;100494.63;;;29.35;37.13
48624;BME280;34422;45.802;16.114;2022-07-06T10:48:47;100498.84;;;29.59;35.24
48624;BME280;34422;45.802;16.114;2022-07-06T10:51:27;100501.13;;;29.57;34.80
48624;BME280;34422;45.802;16.114;2022-07-06T10:53:59;100491.25;;;29.68;35.12
48624;BME280;34422;45.802;16.114;2022-07-06T10:56:38;100506.34;;;29.67;33.21
48624;BME280;34422;45.802;16.114;2022-07-06T10:59:10;100493.84;;;29.73;34.75
48624;BME280;34422;45.802;16.114;2022-07-06T11:01:40;100496.22;;;29.54;34.20
48624;BME280;34422;45.802;16.114;2022-07-06T11:04:09;100492.28;;;29.55;35.01
48624;BME280;34422;45.802;16.114;2022-07-06T11:06:38;100489.06;;;29.35;35.14
48624;BME280;34422;45.802;16.114;2022-07-06T11:09:07;100493.63;;;29.49;34.40
48624;BME280;34422;45.802;16.114;2022-07-06T11:16:32;100500.88;;;29.32;34.29
48624;BME280;34422;45.802;16.114;2022-07-06T11:19:23;100501.00;;;29.91;35.22
48624;BME280;34422;45.802;16.114;2022-07-06T11:21:51;100497.78;;;29.72;33.48
48624;BME280;34422;45.802;16.114;2022-07-06T11:24:23;100493.03;;;29.73;33.38
48624;BME280;34422;45.802;16.114;2022-07-06T11:26:51;100489.84;;;29.91;33.54
48624;BME280;34422;45.802;16.114;2022-07-06T11:29:20;100497.06;;;29.92;32.90
48624;BME280;34422;45.802;16.114;2022-07-06T11:31:49;100484.78;;;30.35;32.63
48624;BME280;34422;45.802;16.114;2022-07-06T11:34:22;100490.88;;;30.37;31.69
48624;BME280;34422;45.802;16.114;2022-07-06T11:36:49;100488.88;;;29.87;32.08
48624;BME280;34422;45.802;16.114;2022-07-06T11:39:20;100491.34;;;29.51;32.14
48624;BME280;34422;45.802;16.114;2022-07-06T11:41:47;100493.47;;;29.45;32.30
48624;BME280;34422;45.802;16.114;2022-07-06T11:44:17;100494.91;;;29.60;31.91
48624;BME280;34422;45.802;16.114;2022-07-06T11:46:44;100483.31;;;29.41;33.86
48624;BME280;34422;45.802;16.114;2022-07-06T11:49:11;100484.19;;;29.15;32.81
48624;BME280;34422;45.802;16.114;2022-07-06T11:51:39;100476.72;;;29.54;34.74
48624;BME280;34422;45.802;16.114;2022-07-06T11:54:19;100471.78;;;29.59;32.09
48624;BME280;34422;45.802;16.114;2022-07-06T11:56:51;100472.69;;;29.72;31.90
48624;BME280;34422;45.802;16.114;2022-07-06T11:59:28;100474.28;;;29.82;31.62
48624;BME280;34422;45.802;16.114;2022-07-06T12:04:34;100465.19;;;29.93;31.25
48624;BME280;34422;45.802;16.114;2022-07-06T12:07:03;100463.69;;;29.96;30.80
48624;BME280;34422;45.802;16.114;2022-07-06T12:09:34;100457.59;;;29.73;30.90
48624;BME280;34422;45.802;16.114;2022-07-06T12:12:03;100468.56;;;29.78;30.60
48624;BME280;34422;45.802;16.114;2022-07-06T12:14:32;100458.50;;;29.86;31.30
48624;BME280;34422;45.802;16.114;2022-07-06T12:17:09;100446.88;;;30.13;30.84
48624;BME280;34422;45.802;16.114;2022-07-06T12:19:37;100445.31;;;30.03;30.84
48624;BME280;34422;45.802;16.114;2022-07-06T12:22:05;100455.38;;;29.87;29.61
48624;BME280;34422;45.802;16.114;2022-07-06T12:24:34;100446.53;;;29.85;30.47
48624;BME280;34422;45.802;16.114;2022-07-06T12:29:40;100453.03;;;29.22;30.91
48624;BME280;34422;45.802;16.114;2022-07-06T12:32:22;100459.88;;;29.42;30.49
48624;BME280;34422;45.802;16.114;2022-07-06T12:37:29;100432.97;;;29.46;31.02
48624;BME280;34422;45.802;16.114;2022-07-06T12:39:57;100439.38;;;29.76;30.85
48624;BME280;34422;45.802;16.114;2022-07-06T12:42:24;100441.25;;;29.92;29.61
48624;BME280;34422;45.802;16.114;2022-07-06T12:44:52;100445.09;;;29.50;29.74
48624;BME280;34422;45.802;16.114;2022-07-06T12:47:23;100441.53;;;29.70;30.15
48624;BME280;34422;45.802;16.114;2022-07-06T12:50:09;100432.06;;;29.92;30.48
48624;BME280;34422;45.802;16.114;2022-07-06T12:52:37;100433.16;;;29.70;29.24